createdAt,value
2023-03-24T00:00:41.116Z,100.00
2023-03-24T00:03:11.055Z,100.00
2023-03-24T00:05:41.796Z,100.00
2023-03-24T00:08:11.154Z,100.00
2023-03-24T00:10:40.774Z,100.00
2023-03-24T00:13:10.466Z,100.00
2023-03-24T00:15:41.107Z,100.00
2023-03-24T00:18:10.959Z,100.00
2023-03-24T00:20:41.442Z,100.00
2023-03-24T00:23:10.515Z,100.00
2023-03-24T00:25:40.342Z,100.00
2023-03-24T00:28:10.369Z,100.00
2023-03-24T00:30:43.819Z,100.00
2023-03-24T00:33:13.656Z,100.00
2023-03-24T00:35:45.146Z,100.00
2023-03-24T00:38:15.057Z,100.00
2023-03-24T00:40:48.725Z,100.00
2023-03-24T00:43:18.065Z,100.00
2023-03-24T00:45:48.875Z,100.00
2023-03-24T00:48:20.300Z,100.00
2023-03-24T00:50:50.650Z,100.00
2023-03-24T00:53:23.390Z,100.00
2023-03-24T00:55:52.728Z,100.00
2023-03-24T00:58:23.743Z,100.00
2023-03-24T01:00:55.774Z,100.00
2023-03-24T01:03:27.984Z,100.00
2023-03-24T01:05:58.676Z,100.00
2023-03-24T01:08:29.143Z,100.00
2023-03-24T01:11:01.533Z,100.00
2023-03-24T01:13:32.195Z,100.00
2023-03-24T01:16:03.794Z,100.00
2023-03-24T01:18:33.018Z,100.00
2023-03-24T01:21:02.676Z,100.00
2023-03-24T01:23:32.247Z,100.00
2023-03-24T01:26:07.063Z,100.00
2023-03-24T01:28:41.201Z,100.00
2023-03-24T01:31:15.105Z,100.00
2023-03-24T01:33:44.468Z,100.00
2023-03-24T01:36:13.693Z,100.00
2023-03-24T01:38:43.450Z,100.00
2023-03-24T01:41:12.599Z,100.00
2023-03-24T01:43:41.764Z,100.00
2023-03-24T01:46:19.292Z,100.00
2023-03-24T01:48:53.097Z,100.00
2023-03-24T01:51:26.198Z,100.00
2023-03-24T01:53:59.493Z,100.00
2023-03-24T01:56:30.944Z,100.00
2023-03-24T01:59:03.970Z,100.00
2023-03-24T02:02:14.031Z,100.00
2023-03-24T02:04:54.345Z,100.00
2023-03-24T02:07:38.474Z,100.00
2023-03-24T02:10:10.485Z,100.00
2023-03-24T02:12:39.823Z,100.00
2023-03-24T02:15:11.942Z,100.00
2023-03-24T02:17:57.901Z,100.00
2023-03-24T02:21:02.442Z,100.00
2023-03-24T02:23:56.974Z,100.00
2023-03-24T02:26:49.254Z,100.00
2023-03-24T02:30:03.000Z,100.00
2023-03-24T02:33:14.338Z,100.00
2023-03-24T02:36:15.707Z,100.00
2023-03-24T02:39:27.703Z,100.00
2023-03-24T02:42:08.417Z,100.00
2023-03-24T02:44:48.747Z,100.00
2023-03-24T02:47:26.618Z,100.00
2023-03-24T02:50:04.037Z,100.00
2023-03-24T02:52:40.879Z,100.00
2023-03-24T02:55:16.265Z,100.00
2023-03-24T02:57:54.394Z,100.00
2023-03-24T03:00:59.906Z,100.00
2023-03-24T03:03:52.026Z,100.00
2023-03-24T03:06:29.560Z,100.00
2023-03-24T03:09:03.015Z,100.00
2023-03-24T03:11:32.372Z,100.00
2023-03-24T03:14:05.674Z,100.00
2023-03-24T03:16:40.234Z,100.00
2023-03-24T03:19:18.304Z,100.00
2023-03-24T03:21:52.028Z,100.00
2023-03-24T03:24:27.340Z,100.00
2023-03-24T03:27:00.535Z,100.00
2023-03-24T03:29:35.977Z,100.00
2023-03-24T03:32:08.362Z,100.00
2023-03-24T03:34:43.962Z,100.00
2023-03-24T03:37:22.628Z,100.00
2023-03-24T03:40:00.444Z,100.00
2023-03-24T03:42:35.808Z,100.00
2023-03-24T03:45:09.547Z,100.00
2023-03-24T03:47:40.439Z,100.00
2023-03-24T03:50:11.532Z,100.00
2023-03-24T03:52:44.958Z,100.00
2023-03-24T03:55:16.411Z,100.00
2023-03-24T03:57:48.045Z,100.00
2023-03-24T04:00:33.705Z,100.00
2023-03-24T04:03:38.980Z,100.00
2023-03-24T04:06:20.473Z,100.00
2023-03-24T04:08:52.107Z,100.00
2023-03-24T04:11:54.245Z,100.00
2023-03-24T04:15:25.858Z,100.00
2023-03-24T04:18:47.671Z,100.00
2023-03-24T04:21:42.619Z,100.00
2023-03-24T04:24:27.738Z,100.00
2023-03-24T04:27:09.604Z,100.00
2023-03-24T04:29:53.453Z,100.00
2023-03-24T04:32:32.686Z,100.00
2023-03-24T04:35:06.795Z,100.00
2023-03-24T04:37:56.748Z,100.00
2023-03-24T04:40:34.306Z,100.00
2023-03-24T04:43:08.689Z,100.00
2023-03-24T04:45:38.565Z,100.00
2023-03-24T04:48:28.683Z,100.00
2023-03-24T04:51:12.809Z,100.00
2023-03-24T04:54:09.188Z,100.00
2023-03-24T04:56:48.055Z,100.00
2023-03-24T04:59:41.385Z,100.00
2023-03-24T05:02:12.713Z,100.00
2023-03-24T05:05:03.885Z,100.00
2023-03-24T05:07:37.726Z,100.00
2023-03-24T05:10:13.713Z,100.00
2023-03-24T05:12:48.582Z,100.00
2023-03-24T05:15:40.956Z,100.00
2023-03-24T05:18:23.399Z,100.00
2023-03-24T05:20:53.946Z,100.00
2023-03-24T05:23:24.604Z,100.00
2023-03-24T05:25:55.713Z,100.00
2023-03-24T05:28:26.735Z,100.00
2023-03-24T05:30:57.786Z,100.00
2023-03-24T05:33:52.936Z,100.00
2023-03-24T05:36:23.899Z,100.00
2023-03-24T05:38:57.296Z,100.00
2023-03-24T05:41:36.283Z,100.00
2023-03-24T05:44:05.408Z,100.00
2023-03-24T05:46:34.525Z,97.77
2023-03-24T05:49:06.124Z,96.63
2023-03-24T05:51:39.804Z,93.72
2023-03-24T05:54:09.753Z,93.04
2023-03-24T05:56:43.955Z,90.54
2023-03-24T05:59:40.113Z,88.79
2023-03-24T06:02:19.388Z,87.64
2023-03-24T06:05:05.316Z,86.23
2023-03-24T06:07:34.375Z,84.90
2023-03-24T06:10:04.800Z,84.18
2023-03-24T06:12:43.994Z,83.36
2023-03-24T06:15:17.804Z,82.25
2023-03-24T06:17:50.496Z,81.03
2023-03-24T06:20:29.532Z,80.89
2023-03-24T06:23:13.612Z,79.79
2023-03-24T06:26:10.936Z,80.85
2023-03-24T06:28:53.787Z,84.71
2023-03-24T06:31:24.717Z,87.41
2023-03-24T06:33:55.540Z,86.90
2023-03-24T06:36:25.948Z,87.26
2023-03-24T06:38:55.386Z,87.87
2023-03-24T06:41:25.024Z,88.54
2023-03-24T06:44:00.967Z,92.54
2023-03-24T06:46:30.667Z,94.22
2023-03-24T06:48:59.777Z,95.39
2023-03-24T06:51:29.359Z,95.22
2023-03-24T06:53:58.280Z,95.92
2023-03-24T06:56:31.125Z,95.31
2023-03-24T06:59:04.025Z,98.83
2023-03-24T07:01:36.607Z,97.04
2023-03-24T07:04:26.005Z,98.67
2023-03-24T07:07:14.753Z,97.86
2023-03-24T07:09:50.611Z,100.00
2023-03-24T07:12:19.836Z,99.98
2023-03-24T07:14:52.253Z,100.00
2023-03-24T07:17:23.258Z,100.00
2023-03-24T07:20:12.927Z,100.00
2023-03-24T07:23:05.002Z,100.00
2023-03-24T07:25:48.128Z,100.00
2023-03-24T07:28:23.314Z,100.00
2023-03-24T07:30:55.482Z,100.00
2023-03-24T07:33:27.142Z,99.56
2023-03-24T07:35:57.688Z,100.00
2023-03-24T07:38:31.515Z,100.00
2023-03-24T07:41:06.174Z,100.00
2023-03-24T07:43:38.480Z,100.00
2023-03-24T07:46:23.804Z,100.00
2023-03-24T07:48:53.415Z,100.00
2023-03-24T07:51:22.440Z,100.00
2023-03-24T07:54:17.972Z,100.00
2023-03-24T07:56:50.728Z,100.00
2023-03-24T07:59:21.048Z,100.00
2023-03-24T08:01:57.667Z,100.00
2023-03-24T08:04:45.185Z,100.00
2023-03-24T08:07:41.476Z,100.00
2023-03-24T08:10:12.780Z,98.25
2023-03-24T08:12:43.004Z,99.99
2023-03-24T08:15:12.109Z,99.76
2023-03-24T08:17:43.249Z,99.12
2023-03-24T08:20:15.020Z,98.17
2023-03-24T08:22:45.846Z,100.00
2023-03-24T08:25:15.203Z,100.00
2023-03-24T08:27:45.164Z,99.27
2023-03-24T08:30:17.491Z,98.23
2023-03-24T08:32:49.672Z,97.81
2023-03-24T08:35:24.391Z,94.87
2023-03-24T08:37:55.250Z,100.00
2023-03-24T08:40:25.751Z,96.54
2023-03-24T08:42:56.788Z,98.71
2023-03-24T08:45:28.589Z,96.84
2023-03-24T08:48:00.490Z,96.65
2023-03-24T08:50:32.283Z,98.49
2023-03-24T08:53:01.640Z,98.78
2023-03-24T08:55:30.883Z,98.46
2023-03-24T08:57:59.903Z,99.67
2023-03-24T09:00:30.607Z,100.00
2023-03-24T09:03:01.827Z,99.22
2023-03-24T09:05:44.092Z,100.00
2023-03-24T09:08:15.086Z,96.83
2023-03-24T09:10:47.167Z,96.65
2023-03-24T09:13:16.753Z,96.38
2023-03-24T09:15:49.415Z,96.43
2023-03-24T09:18:21.867Z,91.90
2023-03-24T09:20:51.586Z,93.45
2023-03-24T09:23:21.365Z,95.96
2023-03-24T09:25:51.443Z,93.97
2023-03-24T09:28:20.674Z,90.73
2023-03-24T09:30:49.982Z,91.97
2023-03-24T09:33:21.558Z,88.92
2023-03-24T09:35:58.488Z,88.08
2023-03-24T09:38:31.021Z,89.56
2023-03-24T09:41:03.288Z,86.64
2023-03-24T09:43:39.920Z,84.39
2023-03-24T09:46:16.326Z,85.56
2023-03-24T09:48:53.824Z,85.67
2023-03-24T09:51:25.120Z,84.45
2023-03-24T09:54:01.321Z,83.15
2023-03-24T09:56:31.151Z,81.64
2023-03-24T09:59:07.053Z,78.69
2023-03-24T10:01:37.102Z,77.85
2023-03-24T10:04:16.756Z,79.34
2023-03-24T10:06:46.557Z,77.33
2023-03-24T10:09:25.095Z,78.82
2023-03-24T10:12:05.830Z,74.93
2023-03-24T10:14:56.655Z,74.89
2023-03-24T10:17:38.924Z,74.80
2023-03-24T10:20:22.683Z,68.64
2023-03-24T10:23:01.728Z,71.94
2023-03-24T10:25:44.900Z,66.49
2023-03-24T10:28:21.094Z,62.41
2023-03-24T10:30:52.998Z,55.08
2023-03-24T10:33:22.512Z,58.15
2023-03-24T10:35:59.116Z,56.03
2023-03-24T10:38:28.179Z,56.25
2023-03-24T10:40:57.660Z,56.69
2023-03-24T10:43:28.604Z,56.95
2023-03-24T10:45:59.850Z,54.63
2023-03-24T10:48:37.578Z,54.50
2023-03-24T10:51:09.161Z,50.38
2023-03-24T10:53:39.888Z,51.41
2023-03-24T10:56:10.438Z,49.17
2023-03-24T10:58:43.263Z,49.50
2023-03-24T11:01:25.515Z,48.07
2023-03-24T11:04:01.232Z,46.93
2023-03-24T11:06:31.874Z,50.03
2023-03-24T11:09:12.368Z,45.51
2023-03-24T11:11:41.551Z,41.87
2023-03-24T11:14:24.360Z,39.45
2023-03-24T11:16:54.580Z,37.38
2023-03-24T11:19:27.299Z,35.65
2023-03-24T11:22:04.263Z,35.05
2023-03-24T11:24:38.883Z,36.27
2023-03-24T11:27:08.481Z,35.58
2023-03-24T11:32:15.875Z,35.58
2023-03-24T11:34:50.152Z,34.07
2023-03-24T11:37:23.301Z,33.68
2023-03-24T11:40:17.480Z,34.99
2023-03-24T11:42:48.743Z,33.94
2023-03-24T11:45:29.293Z,33.39
2023-03-24T11:48:00.164Z,34.10
2023-03-24T11:50:35.751Z,33.43
2023-03-24T11:53:15.208Z,33.13
2023-03-24T11:55:49.992Z,33.40
2023-03-24T11:58:29.318Z,32.01
2023-03-24T12:01:04.458Z,32.55
2023-03-24T12:04:06.174Z,32.62
2023-03-24T12:06:46.219Z,31.54
2023-03-24T12:09:27.771Z,30.81
2023-03-24T12:12:20.525Z,31.89
2023-03-24T12:15:14.388Z,30.21
2023-03-24T12:17:59.884Z,31.45
2023-03-24T12:20:34.382Z,30.87
2023-03-24T12:23:09.560Z,29.56
2023-03-24T12:25:51.964Z,30.58
2023-03-24T12:28:47.729Z,29.17
2023-03-24T12:31:34.724Z,27.96
2023-03-24T12:34:15.022Z,29.37
2023-03-24T12:36:51.595Z,28.66
2023-03-24T12:39:29.842Z,28.18
2023-03-24T12:42:12.840Z,27.61
2023-03-24T12:45:21.978Z,27.83
2023-03-24T12:48:25.941Z,28.64
2023-03-24T12:51:09.682Z,28.41
2023-03-24T12:53:50.489Z,27.67
2023-03-24T12:56:22.667Z,28.98
2023-03-24T12:58:56.796Z,28.26
2023-03-24T13:01:32.270Z,27.65
2023-03-24T13:04:07.483Z,26.91
2023-03-24T13:06:40.970Z,27.71
2023-03-24T13:09:25.065Z,28.50
2023-03-24T13:12:00.668Z,30.29
2023-03-24T13:14:38.638Z,29.03
2023-03-24T13:17:16.583Z,27.97
2023-03-24T13:19:46.216Z,27.26
2023-03-24T13:22:19.601Z,28.92
2023-03-24T13:24:50.060Z,27.82
2023-03-24T13:27:47.417Z,28.30
2023-03-24T13:30:33.936Z,29.38
2023-03-24T13:33:08.418Z,29.17
2023-03-24T13:35:54.261Z,29.38
2023-03-24T13:38:32.789Z,30.18
2023-03-24T13:41:05.947Z,31.66
2023-03-24T13:43:35.902Z,33.49
2023-03-24T13:46:10.933Z,33.06
2023-03-24T13:48:43.508Z,33.33
2023-03-24T13:51:19.555Z,33.56
2023-03-24T13:53:56.914Z,35.61
2023-03-24T13:56:29.363Z,34.53
2023-03-24T13:59:22.482Z,34.97
2023-03-24T14:02:43.176Z,34.51
2023-03-24T14:05:13.598Z,34.07
2023-03-24T14:07:51.133Z,33.77
2023-03-24T14:10:41.750Z,34.66
2023-03-24T14:13:22.474Z,34.77
2023-03-24T14:15:53.585Z,35.19
2023-03-24T14:18:44.374Z,35.49
2023-03-24T14:21:13.553Z,36.36
2023-03-24T14:23:45.998Z,36.69
2023-03-24T14:26:17.451Z,34.40
2023-03-24T14:28:48.275Z,33.34
2023-03-24T14:31:24.754Z,32.95
2023-03-24T14:34:07.451Z,34.05
2023-03-24T14:36:40.283Z,33.29
2023-03-24T14:39:13.454Z,34.70
2023-03-24T14:41:44.613Z,34.86
2023-03-24T14:44:13.699Z,33.12
2023-03-24T14:46:44.868Z,35.26
2023-03-24T14:49:31.578Z,33.63
2023-03-24T14:52:05.538Z,34.24
2023-03-24T14:54:38.949Z,35.26
2023-03-24T14:57:09.502Z,34.77
2023-03-24T14:59:48.129Z,35.44
2023-03-24T15:02:33.498Z,34.82
2023-03-24T15:05:23.573Z,34.25
2023-03-24T15:08:14.351Z,35.63
2023-03-24T15:10:49.060Z,36.98
2023-03-24T15:13:32.615Z,37.21
2023-03-24T15:16:02.888Z,36.75
2023-03-24T15:18:32.302Z,36.63
2023-03-24T15:21:02.830Z,36.92
2023-03-24T15:23:32.957Z,37.14
2023-03-24T15:26:02.244Z,37.27
2023-03-24T15:28:32.991Z,37.21
2023-03-24T15:31:03.399Z,37.75
2023-03-24T15:33:41.980Z,38.35
2023-03-24T15:36:22.580Z,38.28
2023-03-24T15:38:53.665Z,38.92
2023-03-24T15:41:24.892Z,38.49
2023-03-24T15:43:55.120Z,38.16
2023-03-24T15:46:29.272Z,39.33
2023-03-24T15:49:01.005Z,38.91
2023-03-24T15:51:50.415Z,39.21
2023-03-24T15:54:25.080Z,39.41
2023-03-24T15:57:17.605Z,39.44
2023-03-24T15:59:50.214Z,40.38
2023-03-24T16:02:31.527Z,41.69
2023-03-24T16:05:10.512Z,42.29
2023-03-24T16:07:43.464Z,42.93
2023-03-24T16:10:32.634Z,43.70
2023-03-24T16:13:15.430Z,42.76
2023-03-24T16:15:47.206Z,42.66
2023-03-24T16:18:19.991Z,43.12
2023-03-24T16:20:52.079Z,43.51
2023-03-24T16:23:23.631Z,44.44
2023-03-24T16:25:54.319Z,46.23
2023-03-24T16:28:25.279Z,46.12
2023-03-24T16:31:02.310Z,47.28
2023-03-24T16:33:32.531Z,48.78
2023-03-24T16:36:02.190Z,49.31
2023-03-24T16:38:33.417Z,50.36
2023-03-24T16:41:02.626Z,50.96
2023-03-24T16:43:33.555Z,51.52
2023-03-24T16:46:04.485Z,51.15
2023-03-24T16:48:35.031Z,51.34
2023-03-24T16:51:04.316Z,52.18
2023-03-24T16:53:35.065Z,53.20
2023-03-24T16:56:04.146Z,54.06
2023-03-24T16:58:33.804Z,54.81
2023-03-24T17:01:03.052Z,55.05
2023-03-24T17:03:32.349Z,54.85
2023-03-24T17:06:03.849Z,56.46
2023-03-24T17:08:33.053Z,58.89
2023-03-24T17:11:03.824Z,62.41
2023-03-24T17:13:32.980Z,64.00
2023-03-24T17:16:02.279Z,64.17
2023-03-24T17:18:31.443Z,64.75
2023-03-24T17:21:00.866Z,65.92
2023-03-24T17:23:30.820Z,67.40
2023-03-24T17:26:00.681Z,70.54
2023-03-24T17:28:31.358Z,71.77
2023-03-24T17:31:00.766Z,72.21
2023-03-24T17:33:30.043Z,71.71
2023-03-24T17:35:59.194Z,74.28
2023-03-24T17:38:28.451Z,75.51
2023-03-24T17:41:06.816Z,77.54
2023-03-24T17:43:37.891Z,79.09
2023-03-24T17:46:07.385Z,80.18
2023-03-24T17:48:36.579Z,81.61
2023-03-24T17:51:06.393Z,82.97
2023-03-24T17:53:36.977Z,82.99
2023-03-24T17:56:07.325Z,82.05
2023-03-24T17:58:38.284Z,83.14
2023-03-24T18:01:09.010Z,87.66
2023-03-24T18:03:38.488Z,90.63
2023-03-24T18:06:09.743Z,91.76
2023-03-24T18:08:39.672Z,93.22
2023-03-24T18:11:10.249Z,93.99
2023-03-24T18:13:41.763Z,95.47
2023-03-24T18:16:20.703Z,96.57
2023-03-24T18:18:52.014Z,99.37
2023-03-24T18:21:21.462Z,98.84
2023-03-24T18:23:51.413Z,99.25
2023-03-24T18:26:21.847Z,98.05
2023-03-24T18:28:52.618Z,98.34
2023-03-24T18:31:26.190Z,98.63
2023-03-24T18:33:56.500Z,96.71
2023-03-24T18:36:27.748Z,96.15
2023-03-24T18:38:58.967Z,96.06
2023-03-24T18:41:30.591Z,91.15
2023-03-24T18:44:01.471Z,91.11
2023-03-24T18:46:31.525Z,87.43
2023-03-24T18:49:01.201Z,89.95
2023-03-24T18:51:30.884Z,88.70
2023-03-24T18:54:00.243Z,87.96
2023-03-24T18:56:29.568Z,89.01
2023-03-24T18:58:58.807Z,88.23
2023-03-24T19:01:30.566Z,91.33
2023-03-24T19:03:59.822Z,94.36
2023-03-24T19:06:31.496Z,92.50
2023-03-24T19:09:01.063Z,92.07
2023-03-24T19:11:30.863Z,92.92
2023-03-24T19:14:00.381Z,91.73
2023-03-24T19:16:31.041Z,89.95
2023-03-24T19:19:00.430Z,89.70
2023-03-24T19:21:29.655Z,94.07
2023-03-24T19:23:59.005Z,93.26
2023-03-24T19:26:28.076Z,91.79
2023-03-24T19:28:57.769Z,95.00
2023-03-24T19:31:26.917Z,95.34
2023-03-24T19:33:57.617Z,94.23
2023-03-24T19:36:26.807Z,94.74
2023-03-24T19:38:56.076Z,96.19
2023-03-24T19:41:26.691Z,97.56
2023-03-24T19:43:55.808Z,97.38
2023-03-24T19:46:25.037Z,95.51
2023-03-24T19:48:54.207Z,96.29
2023-03-24T19:51:25.263Z,97.20
2023-03-24T19:53:54.383Z,99.79
2023-03-24T19:56:23.384Z,100.00
2023-03-24T19:58:52.450Z,100.00
2023-03-24T20:01:24.005Z,100.00
2023-03-24T20:03:53.418Z,100.00
2023-03-24T20:06:24.202Z,100.00
2023-03-24T20:08:53.239Z,100.00
2023-03-24T20:11:22.489Z,100.00
2023-03-24T20:13:51.532Z,100.00
2023-03-24T20:16:20.758Z,100.00
2023-03-24T20:18:49.842Z,100.00
2023-03-24T20:21:23.080Z,100.00
2023-03-24T20:23:54.247Z,100.00
2023-03-24T20:26:23.780Z,100.00
2023-03-24T20:28:53.668Z,100.00
2023-03-24T20:31:24.890Z,100.00
2023-03-24T20:33:54.056Z,100.00
2023-03-24T20:36:23.317Z,100.00
2023-03-24T20:38:53.845Z,100.00
2023-03-24T20:41:23.549Z,100.00
2023-03-24T20:43:52.587Z,100.00
2023-03-24T20:46:22.036Z,100.00
2023-03-24T20:48:51.612Z,100.00
2023-03-24T20:51:20.757Z,100.00
2023-03-24T20:53:50.099Z,100.00
2023-03-24T20:56:20.652Z,100.00
2023-03-24T20:58:50.484Z,100.00
2023-03-24T21:01:22.344Z,100.00
2023-03-24T21:03:53.497Z,100.00
2023-03-24T21:06:22.651Z,100.00
2023-03-24T21:08:53.188Z,100.00
2023-03-24T21:11:23.625Z,100.00
2023-03-24T21:13:53.233Z,100.00
2023-03-24T21:16:22.360Z,100.00
2023-03-24T21:18:51.533Z,100.00
2023-03-24T21:21:20.660Z,100.00
2023-03-24T21:23:52.902Z,100.00
2023-03-24T21:26:23.920Z,100.00
2023-03-24T21:28:53.985Z,100.00
2023-03-24T21:31:25.958Z,100.00
2023-03-24T21:33:56.154Z,100.00
2023-03-24T21:36:27.639Z,100.00
2023-03-24T21:38:57.404Z,100.00
2023-03-24T21:41:29.653Z,100.00
2023-03-24T21:44:00.920Z,100.00
2023-03-24T21:46:32.360Z,100.00
2023-03-24T21:49:01.425Z,100.00
2023-03-24T21:51:34.647Z,100.00
2023-03-24T21:54:06.894Z,100.00
2023-03-24T21:56:38.196Z,100.00
2023-03-24T21:59:07.413Z,100.00
2023-03-24T22:01:36.577Z,100.00
2023-03-24T22:04:06.213Z,100.00
2023-03-24T22:06:38.099Z,100.00
2023-03-24T22:09:08.592Z,100.00
2023-03-24T22:11:43.162Z,100.00
2023-03-24T22:14:13.253Z,100.00
2023-03-24T22:16:42.501Z,100.00
2023-03-24T22:19:11.698Z,100.00
2023-03-24T22:21:40.806Z,100.00
2023-03-24T22:24:09.915Z,100.00
2023-03-24T22:26:38.925Z,100.00
2023-03-24T22:29:10.049Z,100.00
2023-03-24T22:31:42.906Z,100.00
2023-03-24T22:34:14.062Z,100.00
2023-03-24T22:36:43.240Z,100.00
2023-03-24T22:39:12.179Z,100.00
2023-03-24T22:41:41.311Z,100.00
2023-03-24T22:44:12.230Z,100.00
2023-03-24T22:46:41.431Z,100.00
2023-03-24T22:49:10.617Z,100.00
2023-03-24T22:51:39.797Z,100.00
2023-03-24T22:54:08.874Z,100.00
2023-03-24T22:56:37.991Z,100.00
2023-03-24T22:59:07.040Z,100.00
2023-03-24T23:01:38.540Z,100.00
2023-03-24T23:04:07.777Z,100.00
2023-03-24T23:06:37.237Z,100.00
2023-03-24T23:09:07.330Z,100.00
2023-03-24T23:11:36.490Z,100.00
2023-03-24T23:14:06.370Z,100.00
2023-03-24T23:16:39.252Z,100.00
2023-03-24T23:19:09.773Z,100.00
2023-03-24T23:21:39.573Z,100.00
2023-03-24T23:24:09.028Z,100.00
2023-03-24T23:26:38.693Z,100.00
2023-03-24T23:29:08.376Z,100.00
2023-03-24T23:31:40.937Z,100.00
2023-03-24T23:34:12.581Z,100.00
2023-03-24T23:36:45.248Z,100.00
2023-03-24T23:39:14.901Z,100.00
2023-03-24T23:41:43.887Z,100.00
2023-03-24T23:44:12.942Z,100.00
2023-03-24T23:46:43.953Z,100.00
2023-03-24T23:49:13.222Z,100.00
2023-03-24T23:51:42.953Z,100.00
2023-03-24T23:54:12.011Z,100.00
2023-03-24T23:56:41.147Z,100.00
2023-03-24T23:59:10.556Z,100.00
